createdAt,value
2023-03-25T00:00:17.397Z,94305.06
2023-03-25T00:02:47.602Z,94305.03
2023-03-25T00:05:16.491Z,94302.13
2023-03-25T00:07:44.654Z,94296.44
2023-03-25T00:10:13.618Z,94298.06
2023-03-25T00:12:42.702Z,94294.78
2023-03-25T00:15:11.905Z,94305.50
2023-03-25T00:17:39.366Z,94297.00
2023-03-25T00:20:11.789Z,94292.16
2023-03-25T00:22:44.476Z,94300.00
2023-03-25T00:25:19.213Z,94293.53
2023-03-25T00:27:48.756Z,94295.06
2023-03-25T00:30:16.956Z,94295.28
2023-03-25T00:32:50.509Z,94286.72
2023-03-25T00:35:19.767Z,94285.97
2023-03-25T00:38:00.245Z,94283.41
2023-03-25T00:40:28.827Z,94282.66
2023-03-25T00:42:56.372Z,94279.31
2023-03-25T00:45:23.822Z,94282.72
2023-03-25T00:47:51.212Z,94286.34
2023-03-25T00:50:18.384Z,94277.75
2023-03-25T00:52:45.325Z,94269.41
2023-03-25T00:55:12.926Z,94269.03
2023-03-25T00:57:39.688Z,94263.78
2023-03-25T01:00:10.637Z,94268.72
2023-03-25T01:02:42.269Z,94259.22
2023-03-25T01:05:11.432Z,94265.75
2023-03-25T01:07:39.784Z,94271.16
2023-03-25T01:10:08.588Z,94277.47
2023-03-25T01:12:35.576Z,94274.25
2023-03-25T01:15:02.423Z,94273.53
2023-03-25T01:17:29.341Z,94279.84
2023-03-25T01:19:56.394Z,94276.22
2023-03-25T01:22:23.262Z,94287.13
2023-03-25T01:24:50.018Z,94260.19
2023-03-25T01:27:16.867Z,94256.25
2023-03-25T01:29:43.663Z,94259.25
2023-03-25T01:32:10.461Z,94256.13
2023-03-25T01:34:38.700Z,94255.50
2023-03-25T01:37:06.568Z,94263.44
2023-03-25T01:39:33.387Z,94251.03
2023-03-25T01:42:00.552Z,94251.56
2023-03-25T01:44:28.113Z,94244.78
2023-03-25T01:46:56.449Z,94244.16
2023-03-25T01:49:30.443Z,94239.16
2023-03-25T01:52:04.744Z,94243.84
2023-03-25T01:54:31.713Z,94239.47
2023-03-25T01:56:59.112Z,94237.25
2023-03-25T01:59:28.770Z,94231.47
2023-03-25T02:01:58.610Z,94236.63
2023-03-25T02:04:39.044Z,94233.44
2023-03-25T02:07:10.538Z,94226.34
2023-03-25T02:09:38.800Z,94231.72
2023-03-25T02:12:07.849Z,94225.72
2023-03-25T02:14:36.810Z,94222.00
2023-03-25T02:17:03.528Z,94232.19
2023-03-25T02:20:08.557Z,94236.59
2023-03-25T02:22:59.534Z,94232.31
2023-03-25T02:25:35.651Z,94239.56
2023-03-25T02:28:26.167Z,94227.72
2023-03-25T02:31:02.264Z,94241.53
2023-03-25T02:33:48.023Z,94240.91
2023-03-25T02:36:24.840Z,94243.34
2023-03-25T02:38:56.055Z,94242.00
2023-03-25T02:41:31.653Z,94240.88
2023-03-25T02:44:15.026Z,94235.69
2023-03-25T02:46:49.217Z,94243.69
2023-03-25T02:49:24.540Z,94228.75
2023-03-25T02:52:05.820Z,94229.56
2023-03-25T02:54:37.195Z,94231.13
2023-03-25T02:57:08.096Z,94242.16
2023-03-25T02:59:38.345Z,94227.75
2023-03-25T03:02:09.759Z,94242.69
2023-03-25T03:04:52.626Z,94232.97
2023-03-25T03:07:25.038Z,94244.91
2023-03-25T03:10:19.365Z,94244.22
2023-03-25T03:12:53.706Z,94246.56
2023-03-25T03:15:48.269Z,94235.78
2023-03-25T03:18:27.553Z,94225.63
2023-03-25T03:21:12.086Z,94233.94
2023-03-25T03:24:06.126Z,94246.63
2023-03-25T03:26:53.839Z,94240.06
2023-03-25T03:29:27.756Z,94237.91
2023-03-25T03:32:06.120Z,94251.22
2023-03-25T03:34:51.380Z,94227.00
2023-03-25T03:37:43.944Z,94230.88
2023-03-25T03:40:16.622Z,94237.25
2023-03-25T03:42:57.856Z,94252.09
2023-03-25T03:45:33.443Z,94247.69
2023-03-25T03:48:06.870Z,94242.78
2023-03-25T03:50:41.542Z,94257.03
2023-03-25T03:53:16.025Z,94248.66
2023-03-25T03:55:51.058Z,94244.22
2023-03-25T03:58:24.198Z,94260.63
2023-03-25T04:00:57.873Z,94241.75
2023-03-25T04:03:30.423Z,94239.38
2023-03-25T04:06:26.786Z,94247.91
2023-03-25T04:09:06.783Z,94256.09
2023-03-25T04:11:43.907Z,94265.44
2023-03-25T04:14:13.224Z,94271.09
2023-03-25T04:16:40.485Z,94272.38
2023-03-25T04:19:07.410Z,94267.59
2023-03-25T04:21:34.261Z,94263.38
2023-03-25T04:24:01.697Z,94276.41
2023-03-25T04:26:34.154Z,94264.88
2023-03-25T04:29:02.120Z,94273.56
2023-03-25T04:31:31.434Z,94273.09
2023-03-25T04:33:59.357Z,94264.28
2023-03-25T04:36:33.658Z,94284.22
2023-03-25T04:39:01.323Z,94280.59
2023-03-25T04:41:28.705Z,94282.19
2023-03-25T04:43:55.795Z,94274.06
2023-03-25T04:46:22.663Z,94279.66
2023-03-25T04:48:49.832Z,94280.97
2023-03-25T04:51:16.595Z,94285.22
2023-03-25T04:53:43.542Z,94280.31
2023-03-25T04:56:16.567Z,94279.53
2023-03-25T04:58:44.784Z,94285.75
2023-03-25T05:01:30.794Z,94290.06
2023-03-25T05:04:07.005Z,94275.03
2023-03-25T05:06:42.735Z,94277.41
2023-03-25T05:09:14.593Z,94277.16
2023-03-25T05:11:42.493Z,94273.38
2023-03-25T05:14:10.986Z,94275.97
2023-03-25T05:16:38.772Z,94272.47
2023-03-25T05:19:06.685Z,94281.59
2023-03-25T05:21:37.626Z,94269.78
2023-03-25T05:24:08.364Z,94277.59
2023-03-25T05:26:39.913Z,94281.41
2023-03-25T05:29:10.497Z,94280.91
2023-03-25T05:31:37.348Z,94283.28
2023-03-25T05:34:06.764Z,94276.22
2023-03-25T05:36:33.661Z,94286.78
2023-03-25T05:39:01.012Z,94279.03
2023-03-25T05:41:49.075Z,94264.13
2023-03-25T05:44:18.902Z,94263.00
2023-03-25T05:46:46.297Z,94287.72
2023-03-25T05:49:13.090Z,94305.97
2023-03-25T05:51:40.065Z,94281.31
2023-03-25T05:54:11.809Z,94294.94
2023-03-25T05:56:39.870Z,94286.94
2023-03-25T05:59:06.800Z,94302.63
2023-03-25T06:01:34.427Z,94272.13
2023-03-25T06:04:02.649Z,94262.88
2023-03-25T06:06:34.116Z,94280.22
2023-03-25T06:09:02.433Z,94268.75
2023-03-25T06:11:30.026Z,94300.28
2023-03-25T06:13:57.065Z,94285.78
2023-03-25T06:16:30.279Z,94313.03
2023-03-25T06:19:00.494Z,94314.13
2023-03-25T06:21:29.506Z,94312.31
2023-03-25T06:23:58.772Z,94318.50
2023-03-25T06:26:26.483Z,94337.06
2023-03-25T06:28:53.482Z,94340.16
2023-03-25T06:31:28.145Z,94321.19
2023-03-25T06:33:56.770Z,94347.78
2023-03-25T06:36:25.560Z,94363.63
2023-03-25T06:38:54.196Z,94367.41
2023-03-25T06:41:25.807Z,94353.19
2023-03-25T06:44:03.855Z,94358.34
2023-03-25T06:46:46.477Z,94372.50
2023-03-25T06:49:36.037Z,94353.13
2023-03-25T06:52:02.834Z,94381.59
2023-03-25T06:54:29.843Z,94390.56
2023-03-25T06:56:57.011Z,94374.66
2023-03-25T06:59:24.050Z,94373.19
2023-03-25T07:01:51.252Z,94368.25
2023-03-25T07:04:19.531Z,94386.09
2023-03-25T07:06:46.866Z,94394.31
2023-03-25T07:09:13.599Z,94397.19
2023-03-25T07:11:40.585Z,94401.00
2023-03-25T07:14:07.971Z,94405.63
2023-03-25T07:16:34.805Z,94400.59
2023-03-25T07:19:01.876Z,94404.88
2023-03-25T07:21:28.949Z,94409.06
2023-03-25T07:23:56.100Z,94405.81
2023-03-25T07:26:22.795Z,94399.22
2023-03-25T07:28:49.539Z,94380.69
2023-03-25T07:31:17.140Z,94412.50
2023-03-25T07:33:44.071Z,94380.56
2023-03-25T07:36:12.103Z,94405.84
2023-03-25T07:38:38.853Z,94403.75
2023-03-25T07:41:10.595Z,94406.69
2023-03-25T07:43:39.056Z,94404.09
2023-03-25T07:46:38.307Z,94410.56
2023-03-25T07:49:05.196Z,94405.94
2023-03-25T07:51:34.420Z,94404.94
2023-03-25T07:54:05.707Z,94391.69
2023-03-25T07:56:33.595Z,94410.03
2023-03-25T07:59:00.907Z,94407.28
2023-03-25T08:01:27.848Z,94418.97
2023-03-25T08:03:54.664Z,94419.06
2023-03-25T08:06:21.468Z,94412.97
2023-03-25T08:08:48.368Z,94422.16
2023-03-25T08:11:15.574Z,94452.81
2023-03-25T08:13:42.719Z,94434.53
2023-03-25T08:16:12.687Z,94434.81
2023-03-25T08:18:39.509Z,94415.97
2023-03-25T08:21:06.544Z,94431.56
2023-03-25T08:23:36.970Z,94424.25
2023-03-25T08:26:05.662Z,94456.47
2023-03-25T08:28:33.546Z,94423.59
2023-03-25T08:31:02.512Z,94431.88
2023-03-25T08:33:40.960Z,94451.78
2023-03-25T08:36:14.352Z,94441.25
2023-03-25T08:38:42.167Z,94463.25
2023-03-25T08:41:08.988Z,94458.19
2023-03-25T08:43:35.784Z,94428.88
2023-03-25T08:46:02.989Z,94443.16
2023-03-25T08:48:29.878Z,94413.31
2023-03-25T08:50:57.044Z,94450.44
2023-03-25T08:53:24.302Z,94432.66
2023-03-25T08:55:54.731Z,94434.31
2023-03-25T08:58:22.275Z,94419.16
2023-03-25T09:00:54.329Z,94438.41
2023-03-25T09:03:22.380Z,94405.66
2023-03-25T09:05:50.225Z,94419.50
2023-03-25T09:08:17.817Z,94402.88
2023-03-25T09:10:44.591Z,94416.19
2023-03-25T09:13:11.707Z,94428.19
2023-03-25T09:15:38.636Z,94367.47
2023-03-25T09:18:05.979Z,94434.09
2023-03-25T09:20:33.760Z,94407.25
2023-03-25T09:23:00.930Z,94403.28
2023-03-25T09:25:28.418Z,94423.09
2023-03-25T09:27:55.275Z,94410.59
2023-03-25T09:30:22.162Z,94453.63
2023-03-25T09:32:49.157Z,94399.28
2023-03-25T09:35:16.302Z,94432.31
2023-03-25T09:37:43.790Z,94399.38
2023-03-25T09:40:16.469Z,94434.22
2023-03-25T09:43:08.211Z,94408.19
2023-03-25T09:45:43.748Z,94450.75
2023-03-25T09:48:26.157Z,94440.34
2023-03-25T09:50:53.721Z,94428.13
2023-03-25T09:53:33.816Z,94424.16
2023-03-25T09:56:02.016Z,94372.88
2023-03-25T09:58:35.527Z,94402.00
2023-03-25T10:01:26.991Z,94361.94
2023-03-25T10:04:09.338Z,94374.88
2023-03-25T10:07:20.998Z,94366.19
2023-03-25T10:09:52.272Z,94395.06
2023-03-25T10:12:19.369Z,94359.06
2023-03-25T10:15:20.723Z,94372.19
2023-03-25T10:18:02.620Z,94381.00
2023-03-25T10:20:41.533Z,94399.72
2023-03-25T10:23:18.008Z,94348.63
2023-03-25T10:25:49.302Z,94385.56
2023-03-25T10:28:22.445Z,94404.44
2023-03-25T10:30:53.763Z,94404.50
2023-03-25T10:33:35.196Z,94351.75
2023-03-25T10:36:04.335Z,94317.34
2023-03-25T10:38:34.631Z,94330.50
2023-03-25T10:41:11.925Z,94307.69
2023-03-25T10:43:41.859Z,94315.78
2023-03-25T10:46:20.815Z,94341.00
2023-03-25T10:48:48.988Z,94311.28
2023-03-25T10:51:51.449Z,94345.28
2023-03-25T10:54:19.161Z,94369.69
2023-03-25T10:56:51.040Z,94315.78
2023-03-25T10:59:32.863Z,94345.72
2023-03-25T11:02:01.293Z,94337.00
2023-03-25T11:04:36.899Z,94357.56
2023-03-25T11:07:13.643Z,94362.47
2023-03-25T11:09:40.868Z,94325.97
2023-03-25T11:12:07.778Z,94355.53
2023-03-25T11:14:40.250Z,94328.00
2023-03-25T11:17:21.751Z,94329.72
2023-03-25T11:20:02.488Z,94328.13
2023-03-25T11:22:35.130Z,94306.03
2023-03-25T11:25:07.061Z,94390.53
2023-03-25T11:27:45.750Z,94371.47
2023-03-25T11:30:19.481Z,94334.59
2023-03-25T11:33:07.009Z,94358.13
2023-03-25T11:35:42.570Z,94312.75
2023-03-25T11:38:37.976Z,94292.19
2023-03-25T11:41:07.319Z,94295.59
2023-03-25T11:43:39.132Z,94306.88
2023-03-25T11:46:15.613Z,94251.09
2023-03-25T11:48:44.943Z,94311.16
2023-03-25T11:51:20.625Z,94264.38
2023-03-25T11:53:54.069Z,94274.88
2023-03-25T11:56:25.369Z,94245.16
2023-03-25T11:58:52.339Z,94281.00
2023-03-25T12:01:29.847Z,94293.06
2023-03-25T12:04:26.707Z,94269.19
2023-03-25T12:06:54.616Z,94266.44
2023-03-25T12:09:21.564Z,94269.06
2023-03-25T12:11:57.396Z,94221.66
2023-03-25T12:14:50.218Z,94252.41
2023-03-25T12:17:27.907Z,94248.72
2023-03-25T12:20:01.414Z,94252.50
2023-03-25T12:22:46.890Z,94274.09
2023-03-25T12:25:49.250Z,94312.56
2023-03-25T12:28:44.787Z,94286.91
2023-03-25T12:31:29.453Z,94290.13
2023-03-25T12:34:24.507Z,94232.66
2023-03-25T12:37:17.441Z,94229.94
2023-03-25T12:40:06.205Z,94222.09
2023-03-25T12:42:54.712Z,94259.56
2023-03-25T12:45:27.245Z,94233.56
2023-03-25T12:48:05.496Z,94200.84
2023-03-25T12:50:37.606Z,94232.84
2023-03-25T12:53:07.719Z,94235.44
2023-03-25T12:56:03.491Z,94266.72
2023-03-25T12:59:02.446Z,94215.25
2023-03-25T13:01:53.986Z,94241.50
2023-03-25T13:04:23.529Z,94215.13
2023-03-25T13:06:53.864Z,94202.03
2023-03-25T13:09:36.301Z,94181.63
2023-03-25T13:12:17.918Z,94192.94
2023-03-25T13:15:17.884Z,94188.84
2023-03-25T13:17:57.868Z,94200.97
2023-03-25T13:20:29.647Z,94282.63
2023-03-25T13:23:02.205Z,94296.34
2023-03-25T13:25:42.960Z,94318.19
2023-03-25T13:28:16.250Z,94327.81
2023-03-25T13:30:46.007Z,94305.34
2023-03-25T13:33:37.073Z,94299.69
2023-03-25T13:36:14.395Z,94306.78
2023-03-25T13:38:49.992Z,94289.59
2023-03-25T13:41:41.443Z,94288.09
2023-03-25T13:44:24.604Z,94284.53
2023-03-25T13:46:58.863Z,94305.53
2023-03-25T13:49:51.990Z,94260.81
2023-03-25T13:52:19.798Z,94278.69
2023-03-25T13:54:56.468Z,94285.31
2023-03-25T13:57:30.216Z,94295.88
2023-03-25T14:00:15.242Z,94323.50
2023-03-25T14:03:06.507Z,94274.41
2023-03-25T14:05:33.541Z,94294.81
2023-03-25T14:08:09.694Z,94287.44
2023-03-25T14:11:03.512Z,94309.09
2023-03-25T14:13:36.588Z,94289.03
2023-03-25T14:16:08.661Z,94291.97
2023-03-25T14:18:51.093Z,94313.09
2023-03-25T14:21:22.390Z,94294.13
2023-03-25T14:24:00.348Z,94278.63
2023-03-25T14:26:29.276Z,94270.28
2023-03-25T14:28:58.131Z,94290.47
2023-03-25T14:31:29.374Z,94295.97
2023-03-25T14:34:05.502Z,94275.50
2023-03-25T14:36:38.763Z,94264.00
2023-03-25T14:39:28.588Z,94242.72
2023-03-25T14:42:40.902Z,94224.50
2023-03-25T14:45:32.451Z,94273.41
2023-03-25T14:48:00.319Z,94253.97
2023-03-25T14:50:30.103Z,94254.59
2023-03-25T14:53:12.727Z,94262.72
2023-03-25T14:55:46.580Z,94266.09
2023-03-25T14:58:25.854Z,94256.75
2023-03-25T15:01:11.376Z,94243.63
2023-03-25T15:03:43.947Z,94269.53
2023-03-25T15:06:18.880Z,94287.00
2023-03-25T15:08:57.754Z,94253.50
2023-03-25T15:11:52.256Z,94238.72
2023-03-25T15:14:24.763Z,94253.16
2023-03-25T15:16:59.529Z,94250.97
2023-03-25T15:19:27.982Z,94261.22
2023-03-25T15:21:57.483Z,94217.97
2023-03-25T15:24:36.133Z,94320.72
2023-03-25T15:27:15.000Z,94249.00
2023-03-25T15:30:02.952Z,94254.78
2023-03-25T15:32:55.798Z,94254.69
2023-03-25T15:35:31.750Z,94236.50
2023-03-25T15:38:46.696Z,94239.88
2023-03-25T15:41:27.888Z,94210.66
2023-03-25T15:44:32.065Z,94210.38
2023-03-25T15:47:13.472Z,94263.38
2023-03-25T15:49:58.645Z,94235.47
2023-03-25T15:52:48.853Z,94218.25
2023-03-25T15:55:22.653Z,94242.09
2023-03-25T15:57:54.552Z,94227.88
2023-03-25T16:00:45.108Z,94222.38
2023-03-25T16:03:15.751Z,94220.03
2023-03-25T16:06:04.963Z,94243.97
2023-03-25T16:08:37.547Z,94239.91
2023-03-25T16:11:19.898Z,94245.47
2023-03-25T16:14:08.747Z,94246.53
2023-03-25T16:16:39.212Z,94243.56
2023-03-25T16:19:11.960Z,94260.03
2023-03-25T16:21:38.882Z,94265.38
2023-03-25T16:24:09.602Z,94300.50
2023-03-25T16:26:40.256Z,94285.50
2023-03-25T16:29:22.998Z,94260.13
2023-03-25T16:31:56.452Z,94255.28
2023-03-25T16:34:24.067Z,94234.88
2023-03-25T16:36:52.999Z,94257.06
2023-03-25T16:39:20.399Z,94233.38
2023-03-25T16:41:51.044Z,94259.75
2023-03-25T16:44:22.235Z,94257.66
2023-03-25T16:46:52.168Z,94262.97
2023-03-25T16:49:39.125Z,94268.94
2023-03-25T16:52:19.673Z,94275.16
2023-03-25T16:54:53.214Z,94254.00
2023-03-25T16:57:24.653Z,94264.06
2023-03-25T16:59:54.564Z,94260.28
2023-03-25T17:02:26.372Z,94279.47
2023-03-25T17:04:58.216Z,94266.59
2023-03-25T17:07:28.678Z,94283.97
2023-03-25T17:09:59.085Z,94311.06
2023-03-25T17:12:29.020Z,94263.94
2023-03-25T17:15:04.397Z,94267.09
2023-03-25T17:17:51.695Z,94261.47
2023-03-25T17:20:27.488Z,94288.25
2023-03-25T17:23:09.531Z,94320.59
2023-03-25T17:25:59.822Z,94304.25
2023-03-25T17:28:39.981Z,94304.25
2023-03-25T17:31:25.311Z,94296.72
2023-03-25T17:33:54.082Z,94269.41
2023-03-25T17:36:21.767Z,94289.94
2023-03-25T17:38:54.094Z,94264.56
2023-03-25T17:41:22.689Z,94318.53
2023-03-25T17:43:55.875Z,94294.75
2023-03-25T17:46:28.938Z,94327.84
2023-03-25T17:48:57.860Z,94286.88
2023-03-25T17:51:27.516Z,94302.28
2023-03-25T17:53:55.212Z,94306.00
2023-03-25T17:56:25.528Z,94305.78
2023-03-25T17:59:04.462Z,94319.03
2023-03-25T18:01:33.097Z,94275.31
2023-03-25T18:03:59.837Z,94316.53
2023-03-25T18:06:27.249Z,94290.28
2023-03-25T18:08:55.264Z,94296.00
2023-03-25T18:11:22.939Z,94328.69
2023-03-25T18:13:49.753Z,94322.69
2023-03-25T18:16:19.095Z,94300.97
2023-03-25T18:18:46.128Z,94326.19
2023-03-25T18:21:14.779Z,94287.44
2023-03-25T18:23:47.189Z,94332.16
2023-03-25T18:26:17.641Z,94321.97
2023-03-25T18:28:46.254Z,94345.69
2023-03-25T18:31:17.397Z,94320.31
2023-03-25T18:33:46.876Z,94350.66
2023-03-25T18:36:14.732Z,94333.94
2023-03-25T18:38:41.917Z,94361.81
2023-03-25T18:41:11.823Z,94320.56
2023-03-25T18:43:40.563Z,94327.22
2023-03-25T18:46:10.612Z,94337.66
2023-03-25T18:48:37.609Z,94349.63
2023-03-25T18:51:05.251Z,94348.31
2023-03-25T18:53:32.134Z,94369.44
2023-03-25T18:56:01.086Z,94365.91
2023-03-25T18:58:34.025Z,94362.59
2023-03-25T19:01:02.543Z,94360.06
2023-03-25T19:03:39.338Z,94379.44
2023-03-25T19:06:09.873Z,94387.09
2023-03-25T19:08:37.080Z,94394.53
2023-03-25T19:11:19.206Z,94406.63
2023-03-25T19:13:48.417Z,94392.41
2023-03-25T19:16:15.678Z,94405.00
2023-03-25T19:18:42.548Z,94372.53
2023-03-25T19:21:14.046Z,94400.69
2023-03-25T19:23:42.122Z,94407.81
2023-03-25T19:26:09.941Z,94405.88
2023-03-25T19:28:36.728Z,94384.78
2023-03-25T19:31:04.117Z,94397.97
2023-03-25T19:33:31.579Z,94392.09
2023-03-25T19:36:01.685Z,94367.63
2023-03-25T19:38:29.682Z,94395.31
2023-03-25T19:41:10.058Z,94383.63
2023-03-25T19:43:37.091Z,94383.69
2023-03-25T19:46:05.640Z,94384.22
2023-03-25T19:48:33.423Z,94388.47
2023-03-25T19:51:00.164Z,94405.09
2023-03-25T19:53:28.068Z,94410.00
2023-03-25T19:55:56.857Z,94394.38
2023-03-25T19:58:25.310Z,94393.69
2023-03-25T20:00:53.086Z,94389.00
2023-03-25T20:03:24.453Z,94393.75
2023-03-25T20:05:58.306Z,94393.00
2023-03-25T20:08:26.083Z,94388.81
2023-03-25T20:10:54.746Z,94386.69
2023-03-25T20:13:22.130Z,94379.09
2023-03-25T20:15:50.165Z,94385.53
2023-03-25T20:18:17.387Z,94390.88
2023-03-25T20:20:44.178Z,94373.44
2023-03-25T20:23:11.053Z,94381.38
2023-03-25T20:25:39.544Z,94372.13
2023-03-25T20:28:06.328Z,94371.22
2023-03-25T20:30:35.375Z,94372.56
2023-03-25T20:33:03.874Z,94376.28
2023-03-25T20:35:31.811Z,94385.44
2023-03-25T20:37:58.777Z,94366.03
2023-03-25T20:40:37.349Z,94372.72
2023-03-25T20:43:10.040Z,94374.28
2023-03-25T20:45:36.803Z,94361.94
2023-03-25T20:48:04.955Z,94363.16
2023-03-25T20:50:32.515Z,94367.19
2023-03-25T20:52:59.523Z,94368.47
2023-03-25T20:55:26.377Z,94373.09
2023-03-25T20:57:53.143Z,94387.78
2023-03-25T21:00:20.361Z,94362.50
2023-03-25T21:02:47.767Z,94374.63
2023-03-25T21:05:14.600Z,94381.38
2023-03-25T21:07:41.577Z,94366.38
2023-03-25T21:10:09.294Z,94390.03
2023-03-25T21:12:43.943Z,94372.41
2023-03-25T21:15:14.655Z,94365.91
2023-03-25T21:17:42.307Z,94385.34
2023-03-25T21:20:10.698Z,94377.56
2023-03-25T21:22:44.299Z,94375.09
2023-03-25T21:25:14.560Z,94391.63
2023-03-25T21:27:42.489Z,94359.28
2023-03-25T21:30:11.474Z,94368.38
2023-03-25T21:32:38.961Z,94363.50
2023-03-25T21:35:08.038Z,94368.13
2023-03-25T21:37:38.820Z,94373.19
2023-03-25T21:40:11.810Z,94370.31
2023-03-25T21:42:41.819Z,94379.25
2023-03-25T21:45:11.582Z,94366.16
2023-03-25T21:47:38.552Z,94362.59
2023-03-25T21:50:10.591Z,94364.97
2023-03-25T21:52:38.615Z,94368.75
2023-03-25T21:55:06.382Z,94370.13
2023-03-25T21:57:37.744Z,94335.72
2023-03-25T22:00:07.664Z,94345.88
2023-03-25T22:02:38.738Z,94349.66
2023-03-25T22:05:06.278Z,94361.72
2023-03-25T22:07:33.004Z,94350.78
2023-03-25T22:09:59.763Z,94358.91
2023-03-25T22:12:27.301Z,94343.31
2023-03-25T22:14:54.175Z,94336.41
2023-03-25T22:17:21.521Z,94331.50
2023-03-25T22:19:49.035Z,94363.19
2023-03-25T22:22:19.122Z,94315.06
2023-03-25T22:24:47.031Z,94341.78
2023-03-25T22:27:14.289Z,94346.59
2023-03-25T22:29:44.633Z,94327.97
2023-03-25T22:32:12.233Z,94339.88
2023-03-25T22:34:39.535Z,94349.72
2023-03-25T22:37:06.911Z,94349.00
2023-03-25T22:39:33.841Z,94339.88
2023-03-25T22:42:00.811Z,94353.31
2023-03-25T22:44:28.210Z,94331.31
2023-03-25T22:46:55.927Z,94346.56
2023-03-25T22:49:22.709Z,94360.56
2023-03-25T22:51:49.675Z,94329.75
2023-03-25T22:54:16.898Z,94351.72
2023-03-25T22:56:44.190Z,94337.06
2023-03-25T22:59:12.896Z,94341.66
2023-03-25T23:01:41.600Z,94343.38
2023-03-25T23:04:09.091Z,94341.22
2023-03-25T23:06:36.534Z,94344.91
2023-03-25T23:09:06.288Z,94340.91
2023-03-25T23:11:33.014Z,94328.59
2023-03-25T23:14:06.697Z,94327.16
2023-03-25T23:16:34.752Z,94341.72
2023-03-25T23:19:04.515Z,94327.31
2023-03-25T23:21:32.728Z,94307.56
2023-03-25T23:24:02.993Z,94332.84
2023-03-25T23:26:38.904Z,94327.09
2023-03-25T23:29:09.022Z,94340.84
2023-03-25T23:31:38.046Z,94341.50
2023-03-25T23:34:06.773Z,94329.31
2023-03-25T23:36:39.364Z,94324.59
2023-03-25T23:39:09.083Z,94342.75
2023-03-25T23:41:36.693Z,94343.81
2023-03-25T23:44:04.783Z,94333.34
2023-03-25T23:46:32.372Z,94330.25
2023-03-25T23:49:02.584Z,94346.00
2023-03-25T23:51:36.780Z,94324.81
2023-03-25T23:54:05.802Z,94328.31
2023-03-25T23:56:32.647Z,94319.47
2023-03-25T23:59:00.275Z,94344.66
